Terminal Aerodrome Forecast
Issued by NWS Sterling, VA

Home | Current Version | Previous Version | Text Only | Print | Product List | Glossary On
Versions: 1 2 3 4 5 6 7 8 9 10 11 12 13 14 15 16 17 18 19 20 21 22 23 24
000
FTUS41 KLWX 262300
TAFBWI
TAF
KBWI 262336Z 2700/2806 32006KT 6SM -RA BR FEW012 OVC035
     FM270100 31010KT P6SM OVC030
     FM270500 31006KT 5SM BR OVC030
     FM271100 VRB03KT P6SM OVC050
     FM272000 31007KT P6SM OVC050=

USA.gov is the U.S. government's official web portal to all federal, state and local government web resources and services.